createdAt,value
2023-03-03T00:01:16.333Z,100.00
2023-03-03T00:05:19.460Z,100.00
2023-03-03T00:09:22.543Z,100.00
2023-03-03T00:13:28.540Z,100.00
2023-03-03T00:17:33.997Z,100.00
2023-03-03T00:21:42.942Z,100.00
2023-03-03T00:25:47.585Z,100.00
2023-03-03T00:29:54.384Z,100.00
2023-03-03T00:34:05.328Z,100.00
2023-03-03T00:38:16.911Z,100.00
2023-03-03T00:42:20.901Z,100.00
2023-03-03T00:46:25.057Z,100.00
2023-03-03T00:50:32.818Z,100.00
2023-03-03T00:54:36.655Z,100.00
2023-03-03T00:58:39.623Z,100.00
2023-03-03T01:02:46.529Z,100.00
2023-03-03T01:06:51.629Z,100.00
2023-03-03T01:10:57.121Z,100.00
2023-03-03T01:15:00.565Z,100.00
2023-03-03T01:19:03.559Z,100.00
2023-03-03T01:23:08.455Z,100.00
2023-03-03T01:27:11.406Z,100.00
2023-03-03T01:31:14.772Z,100.00
2023-03-03T01:35:18.315Z,100.00
2023-03-03T01:39:23.074Z,100.00
2023-03-03T01:43:27.949Z,100.00
2023-03-03T01:47:34.783Z,100.00
2023-03-03T01:51:44.081Z,100.00
2023-03-03T01:55:53.163Z,100.00
2023-03-03T01:59:58.467Z,100.00
2023-03-03T02:04:02.695Z,100.00
2023-03-03T02:08:07.358Z,100.00
2023-03-03T02:12:17.631Z,100.00
2023-03-03T02:16:22.503Z,100.00
2023-03-03T02:20:36.882Z,100.00
2023-03-03T02:24:46.995Z,100.00
2023-03-03T02:28:52.696Z,100.00
2023-03-03T02:32:55.898Z,100.00
2023-03-03T02:36:59.449Z,100.00
2023-03-03T02:41:09.223Z,100.00
2023-03-03T02:45:14.505Z,100.00
2023-03-03T02:49:21.816Z,100.00
2023-03-03T02:53:24.928Z,100.00
2023-03-03T02:57:28.860Z,100.00
2023-03-03T03:01:37.151Z,100.00
2023-03-03T03:05:42.841Z,100.00
2023-03-03T03:09:46.008Z,100.00
2023-03-03T03:13:50.193Z,100.00
2023-03-03T03:17:54.725Z,100.00
2023-03-03T03:21:58.831Z,100.00
2023-03-03T03:26:03.092Z,100.00
2023-03-03T03:30:07.271Z,100.00
2023-03-03T03:34:12.894Z,100.00
2023-03-03T03:38:16.145Z,100.00
2023-03-03T03:42:19.628Z,100.00
2023-03-03T03:46:23.636Z,100.00
2023-03-03T03:50:28.599Z,100.00
2023-03-03T03:54:31.983Z,100.00
2023-03-03T03:58:35.152Z,100.00
2023-03-03T04:02:42.567Z,100.00
2023-03-03T04:06:51.278Z,100.00
2023-03-03T04:10:54.167Z,100.00
2023-03-03T04:14:58.895Z,100.00
2023-03-03T04:19:03.521Z,100.00
2023-03-03T04:23:10.751Z,100.00
2023-03-03T04:27:15.368Z,100.00
2023-03-03T04:31:20.474Z,100.00
2023-03-03T04:35:25.082Z,100.00
2023-03-03T04:39:30.824Z,100.00
2023-03-03T04:43:34.998Z,100.00
2023-03-03T04:47:39.592Z,100.00
2023-03-03T04:51:43.411Z,100.00
2023-03-03T04:55:51.682Z,100.00
2023-03-03T04:59:55.403Z,100.00
2023-03-03T05:03:58.631Z,100.00
2023-03-03T05:08:01.844Z,100.00
2023-03-03T05:12:06.834Z,100.00
2023-03-03T05:16:11.920Z,100.00
2023-03-03T05:20:15.298Z,100.00
2023-03-03T05:24:18.536Z,100.00
2023-03-03T05:28:22.827Z,100.00
2023-03-03T05:32:26.039Z,100.00
2023-03-03T05:36:29.175Z,100.00
2023-03-03T05:40:32.303Z,100.00
2023-03-03T05:44:38.724Z,100.00
2023-03-03T05:48:43.915Z,100.00
2023-03-03T05:52:56.476Z,100.00
2023-03-03T05:57:08.267Z,100.00
2023-03-03T06:01:12.826Z,100.00
2023-03-03T06:05:15.832Z,100.00
2023-03-03T06:09:19.166Z,100.00
2023-03-03T06:13:30.291Z,100.00
2023-03-03T06:17:50.428Z,100.00
2023-03-03T06:22:05.239Z,100.00
2023-03-03T06:26:08.251Z,100.00
2023-03-03T06:30:12.923Z,100.00
2023-03-03T06:34:17.397Z,100.00
2023-03-03T06:38:21.695Z,100.00
2023-03-03T06:42:24.886Z,100.00
2023-03-03T06:46:28.060Z,100.00
2023-03-03T06:50:32.588Z,100.00
2023-03-03T06:54:37.165Z,100.00
2023-03-03T06:58:40.763Z,100.00
2023-03-03T07:02:44.086Z,100.00
2023-03-03T07:06:48.465Z,100.00
2023-03-03T07:10:52.879Z,100.00
2023-03-03T07:15:02.582Z,100.00
2023-03-03T07:19:18.094Z,100.00
2023-03-03T07:23:35.536Z,100.00
2023-03-03T07:27:38.687Z,100.00
2023-03-03T07:31:45.541Z,100.00
2023-03-03T07:35:48.878Z,100.00
2023-03-03T07:39:53.375Z,100.00
2023-03-03T07:44:05.971Z,100.00
2023-03-03T07:48:20.322Z,100.00
2023-03-03T07:52:29.577Z,100.00
2023-03-03T07:56:36.999Z,100.00
2023-03-03T08:01:27.993Z,100.00
2023-03-03T08:05:36.574Z,100.00
2023-03-03T08:09:51.036Z,100.00
2023-03-03T08:13:57.441Z,100.00
2023-03-03T08:18:02.968Z,100.00
2023-03-03T08:22:16.151Z,100.00
2023-03-03T08:26:19.704Z,100.00
2023-03-03T08:30:24.076Z,100.00
2023-03-03T08:34:34.958Z,100.00
2023-03-03T08:38:42.236Z,100.00
2023-03-03T08:42:45.860Z,100.00
2023-03-03T08:46:51.575Z,100.00
2023-03-03T08:50:55.198Z,100.00
2023-03-03T08:54:58.219Z,100.00
2023-03-03T08:59:02.894Z,100.00
2023-03-03T09:03:08.688Z,100.00
2023-03-03T09:07:11.533Z,100.00
2023-03-03T09:11:15.697Z,100.00
2023-03-03T09:15:25.063Z,100.00
2023-03-03T09:19:32.433Z,100.00
2023-03-03T09:23:37.268Z,100.00
2023-03-03T09:27:41.674Z,100.00
2023-03-03T09:31:46.928Z,100.00
2023-03-03T09:35:55.066Z,100.00
2023-03-03T09:39:59.075Z,100.00
2023-03-03T09:44:19.709Z,100.00
2023-03-03T09:48:40.887Z,100.00
2023-03-03T09:52:57.683Z,100.00
2023-03-03T09:57:09.280Z,100.00
2023-03-03T10:01:36.526Z,100.00
2023-03-03T10:05:48.699Z,100.00
2023-03-03T10:10:09.002Z,100.00
2023-03-03T10:14:32.627Z,100.00
2023-03-03T10:18:43.807Z,100.00
2023-03-03T10:22:53.172Z,100.00
2023-03-03T10:27:14.450Z,100.00
2023-03-03T10:31:32.756Z,100.00
2023-03-03T10:36:08.425Z,100.00
2023-03-03T10:40:21.265Z,100.00
2023-03-03T10:44:49.938Z,100.00
2023-03-03T10:49:11.771Z,100.00
2023-03-03T10:53:23.974Z,100.00
2023-03-03T10:57:36.521Z,100.00
2023-03-03T11:01:50.618Z,100.00
2023-03-03T11:06:00.030Z,99.88
2023-03-03T11:10:15.605Z,98.49
2023-03-03T11:14:28.720Z,98.96
2023-03-03T11:18:51.956Z,98.99
2023-03-03T11:23:03.578Z,96.92
2023-03-03T11:27:50.754Z,96.15
2023-03-03T11:31:58.566Z,94.35
2023-03-03T11:36:11.889Z,92.80
2023-03-03T11:40:20.799Z,91.89
2023-03-03T11:44:30.530Z,89.61
2023-03-03T11:48:39.214Z,87.04
2023-03-03T11:52:49.885Z,85.28
2023-03-03T11:56:59.309Z,83.22
2023-03-03T12:01:11.463Z,82.49
2023-03-03T12:05:27.216Z,82.29
2023-03-03T12:09:45.246Z,79.81
2023-03-03T12:13:57.693Z,79.16
2023-03-03T12:18:36.109Z,76.15
2023-03-03T12:23:04.541Z,76.01
2023-03-03T12:27:20.317Z,72.71
2023-03-03T12:31:35.113Z,73.32
2023-03-03T12:35:45.194Z,72.49
2023-03-03T12:39:59.455Z,72.68
2023-03-03T12:44:09.423Z,72.19
2023-03-03T12:48:18.036Z,71.53
2023-03-03T12:52:29.564Z,67.28
2023-03-03T12:56:38.916Z,66.34
2023-03-03T13:00:54.953Z,66.23
2023-03-03T13:05:06.015Z,66.23
2023-03-03T13:09:21.427Z,66.17
2023-03-03T13:13:30.596Z,63.53
2023-03-03T13:17:40.340Z,63.60
2023-03-03T13:21:51.423Z,62.64
2023-03-03T13:25:59.100Z,63.39
2023-03-03T13:30:04.996Z,64.48
2023-03-03T13:34:19.025Z,65.03
2023-03-03T13:38:25.076Z,65.08
2023-03-03T13:42:35.149Z,66.93
2023-03-03T13:46:43.345Z,67.66
2023-03-03T13:50:54.716Z,65.84
2023-03-03T13:55:15.001Z,66.08
2023-03-03T13:59:29.079Z,65.73
2023-03-03T14:03:49.965Z,66.74
2023-03-03T14:08:00.036Z,67.81
2023-03-03T14:12:35.489Z,67.82
2023-03-03T14:16:52.854Z,68.97
2023-03-03T14:20:59.212Z,70.30
2023-03-03T14:25:07.057Z,71.29
2023-03-03T14:29:21.518Z,71.87
2023-03-03T14:33:31.482Z,72.15
2023-03-03T14:37:45.788Z,72.27
2023-03-03T14:41:52.438Z,72.56
2023-03-03T14:45:56.529Z,73.82
2023-03-03T14:50:00.717Z,74.54
2023-03-03T14:54:15.075Z,74.80
2023-03-03T14:58:32.621Z,74.94
2023-03-03T15:02:42.235Z,74.49
2023-03-03T15:06:47.456Z,75.53
2023-03-03T15:10:50.302Z,76.27
2023-03-03T15:15:06.504Z,76.92
2023-03-03T15:19:38.521Z,77.79
2023-03-03T15:23:56.015Z,77.19
2023-03-03T15:28:26.354Z,77.26
2023-03-03T15:32:37.127Z,77.04
2023-03-03T15:36:48.680Z,76.99
2023-03-03T15:41:00.770Z,77.33
2023-03-03T15:45:14.874Z,77.17
2023-03-03T15:49:36.995Z,77.06
2023-03-03T15:54:17.229Z,76.15
2023-03-03T15:58:39.848Z,74.16
2023-03-03T16:02:51.776Z,73.50
2023-03-03T16:07:04.084Z,73.61
2023-03-03T16:11:13.627Z,73.95
2023-03-03T16:15:28.550Z,73.48
2023-03-03T16:19:39.576Z,74.24
2023-03-03T16:23:50.794Z,75.08
2023-03-03T16:28:16.206Z,75.66
2023-03-03T16:32:25.453Z,75.71
2023-03-03T16:36:38.114Z,75.65
2023-03-03T16:40:51.330Z,76.55
2023-03-03T16:45:21.095Z,76.48
2023-03-03T16:49:45.952Z,78.16
2023-03-03T16:54:02.594Z,78.41
2023-03-03T16:58:23.513Z,78.19
2023-03-03T17:02:59.846Z,78.41
2023-03-03T17:07:13.850Z,79.24
2023-03-03T17:11:27.701Z,80.35
2023-03-03T17:15:40.693Z,80.96
2023-03-03T17:20:04.774Z,80.97
2023-03-03T17:24:25.864Z,81.51
2023-03-03T17:28:50.068Z,81.94
2023-03-03T17:33:15.095Z,82.05
2023-03-03T17:37:31.423Z,82.35
2023-03-03T17:41:45.930Z,82.68
2023-03-03T17:45:55.300Z,83.67
2023-03-03T17:50:15.323Z,84.05
2023-03-03T17:54:47.254Z,82.57
2023-03-03T17:59:27.686Z,81.71
2023-03-03T18:03:49.537Z,81.69
2023-03-03T18:08:07.315Z,82.24
2023-03-03T18:12:23.068Z,81.92
2023-03-03T18:16:40.565Z,80.84
2023-03-03T18:21:11.294Z,81.22
2023-03-03T18:25:17.801Z,80.37
2023-03-03T18:29:28.852Z,80.46
2023-03-03T18:33:45.363Z,81.07
2023-03-03T18:37:54.534Z,80.54
2023-03-03T18:42:37.667Z,81.30
2023-03-03T18:46:59.414Z,81.34
2023-03-03T18:51:02.895Z,81.56
2023-03-03T18:55:40.408Z,82.07
2023-03-03T18:59:54.483Z,81.86
2023-03-03T19:04:10.570Z,81.64
2023-03-03T19:08:23.138Z,82.00
2023-03-03T19:12:51.525Z,82.60
2023-03-03T19:17:00.787Z,83.46
2023-03-03T19:21:05.820Z,83.96
2023-03-03T19:25:25.820Z,84.29
2023-03-03T19:30:05.796Z,83.97
2023-03-03T19:34:34.402Z,83.96
2023-03-03T19:39:02.927Z,83.75
2023-03-03T19:43:21.575Z,84.46
2023-03-03T19:47:35.621Z,84.38
2023-03-03T19:51:48.883Z,85.54
2023-03-03T19:56:09.300Z,85.52
2023-03-03T20:00:24.552Z,85.93
2023-03-03T20:04:42.514Z,85.91
2023-03-03T20:08:57.500Z,86.71
2023-03-03T20:13:15.730Z,86.92
2023-03-03T20:17:39.065Z,87.16
2023-03-03T20:21:50.153Z,86.75
2023-03-03T20:26:02.932Z,87.24
2023-03-03T20:30:32.565Z,87.46
2023-03-03T20:34:47.360Z,87.77
2023-03-03T20:39:01.697Z,88.21
2023-03-03T20:43:19.185Z,88.31
2023-03-03T20:47:35.049Z,88.09
2023-03-03T20:51:45.929Z,88.49
2023-03-03T20:55:59.649Z,88.65
2023-03-03T21:00:08.720Z,89.20
2023-03-03T21:04:24.070Z,89.14
2023-03-03T21:08:45.973Z,88.93
2023-03-03T21:12:48.983Z,89.45
2023-03-03T21:16:56.714Z,89.05
2023-03-03T21:20:59.886Z,89.36
2023-03-03T21:25:06.305Z,89.37
2023-03-03T21:29:09.866Z,89.78
2023-03-03T21:33:41.128Z,90.67
2023-03-03T21:37:47.442Z,90.79
2023-03-03T21:41:56.055Z,90.95
2023-03-03T21:45:59.007Z,91.61
2023-03-03T21:50:03.414Z,91.89
2023-03-03T21:54:06.556Z,91.84
2023-03-03T21:58:09.890Z,91.77
2023-03-03T22:02:13.184Z,92.09
2023-03-03T22:06:17.821Z,91.79
2023-03-03T22:10:20.737Z,92.39
2023-03-03T22:14:25.505Z,92.11
2023-03-03T22:18:31.318Z,92.24
2023-03-03T22:22:35.965Z,92.56
2023-03-03T22:26:39.523Z,92.40
2023-03-03T22:30:44.294Z,92.67
2023-03-03T22:34:47.220Z,93.16
2023-03-03T22:38:51.622Z,93.40
2023-03-03T22:42:54.500Z,93.24
2023-03-03T22:46:57.468Z,92.90
2023-03-03T22:51:00.910Z,93.09
2023-03-03T22:55:05.770Z,93.29
2023-03-03T22:59:08.570Z,92.86
2023-03-03T23:03:12.013Z,93.04
2023-03-03T23:07:14.925Z,93.68
2023-03-03T23:11:19.760Z,93.27
2023-03-03T23:15:22.755Z,92.83
2023-03-03T23:19:26.362Z,93.26
2023-03-03T23:23:30.600Z,93.47
2023-03-03T23:27:35.939Z,93.34
2023-03-03T23:31:39.087Z,94.07
2023-03-03T23:35:42.101Z,93.81
2023-03-03T23:39:45.088Z,94.14
2023-03-03T23:43:49.350Z,93.63
2023-03-03T23:47:52.592Z,93.55
2023-03-03T23:51:55.558Z,94.07
2023-03-03T23:55:58.521Z,93.80
